Main page
METAR-TAF:

METAR-TAF

Airports :

Helsinki Airport

Helsinki, Finland

latitude: 60-19N, longitude: 024-58E, elevation: 51 m

Current weather observation

The report was made 11 minutes ago, at 21:50 UTC
Wind 4 kt from the Southwest
Temperature 17°C
Humidity 68%
Pressure 1013 hPa
Visibility 10 km or more
no clouds below 1500 m and no cumulonimbus

METAR: EFHK 192150Z 22004KT CAVOK 17/11 Q1013 NOSIG

Time: 01:01 (22:01 UTC)

Forecast

The report was made 1 hour and 26 minutes ago, at 20:35 UTC
Forecast valid from 19 at 21 UTC to 20 at 21 UTC
Wind 6 kt from the South/Southwest
Visibility 10 km or more
no clouds below 1500 m and no cumulonimbus
Becoming
from 20 at 08 UTC to 20 at 10 UTC
Wind 10 kt from the South/Southeast
Probability 30% :
Temporary
from 20 at 15 UTC to 20 at 21 UTC
Few clouds at a height of 7000 ft, Cumulonimbus.

TAF: EFHK 192035Z 1921/2021 21006KT CAVOK BECMG 2008/2010 15010KT PROB30 TEMPO 2015/2021 FEW070CB

Weather observations and forecasts of more than 4000 airports (METAR and TAF reports).

The available stations are represented by yellow and red dots on the map.

Hover mouse over dot to see the name of the station.

Then click to see weather observations and forecasts.

To change the map : click on the green buttons with a black cross to zoom in, on the green button with a dash to zoom out, or on the green arrows for adjacent maps.


METAR-TAF: